createdAt,value
2022-12-24T00:01:39.554Z,100121.09
2022-12-24T00:04:06.466Z,100126.13
2022-12-24T00:06:32.863Z,100123.53
2022-12-24T00:08:59.295Z,100115.66
2022-12-24T00:11:25.812Z,100116.97
2022-12-24T00:13:52.262Z,100106.25
2022-12-24T00:16:18.718Z,100110.38
2022-12-24T00:18:46.711Z,100113.00
2022-12-24T00:21:14.775Z,100105.94
2022-12-24T00:23:41.248Z,100105.91
2022-12-24T00:26:07.763Z,100105.06
2022-12-24T00:28:34.272Z,100107.25
2022-12-24T00:31:00.717Z,100115.38
2022-12-24T00:33:27.214Z,100122.25
2022-12-24T00:35:54.647Z,100112.53
2022-12-24T00:38:21.163Z,100117.75
2022-12-24T00:40:47.671Z,100122.88
2022-12-24T00:43:14.143Z,100121.38
2022-12-24T00:45:40.708Z,100122.88
2022-12-24T00:48:07.117Z,100131.88
2022-12-24T00:50:33.671Z,100134.25
2022-12-24T00:53:00.236Z,100138.09
2022-12-24T00:55:26.746Z,100129.78
2022-12-24T00:57:53.146Z,100136.47
2022-12-24T01:00:19.918Z,100145.97
2022-12-24T01:02:46.543Z,100153.25
2022-12-24T01:05:13.414Z,100140.13
2022-12-24T01:07:43.779Z,100148.88
2022-12-24T01:10:15.840Z,100155.56
2022-12-24T01:12:42.798Z,100168.00
2022-12-24T01:15:10.442Z,100160.69
2022-12-24T01:17:37.072Z,100158.22
2022-12-24T01:20:05.677Z,100159.31
2022-12-24T01:22:33.417Z,100161.59
2022-12-24T01:24:59.915Z,100172.59
2022-12-24T01:27:26.296Z,100172.47
2022-12-24T01:29:52.697Z,100183.69
2022-12-24T01:32:19.076Z,100179.03
2022-12-24T01:34:45.612Z,100191.06
2022-12-24T01:37:12.025Z,100188.22
2022-12-24T01:39:38.530Z,100196.53
2022-12-24T01:42:35.681Z,100200.50
2022-12-24T01:45:33.947Z,100197.69
2022-12-24T01:48:00.372Z,100200.59
2022-12-24T01:50:26.836Z,100198.34
2022-12-24T01:52:53.389Z,100196.31
2022-12-24T01:55:20.276Z,100193.81
2022-12-24T01:57:50.828Z,100189.47
2022-12-24T02:00:17.800Z,100192.56
2022-12-24T02:02:46.971Z,100199.31
2022-12-24T02:05:27.771Z,100186.53
2022-12-24T02:07:54.191Z,100196.50
2022-12-24T02:10:20.789Z,100193.47
2022-12-24T02:12:47.445Z,100202.44
2022-12-24T02:15:15.399Z,100201.00
2022-12-24T02:17:47.714Z,100201.16
2022-12-24T02:20:38.965Z,100204.28
2022-12-24T02:23:32.245Z,100207.81
2022-12-24T02:26:28.082Z,100205.97
2022-12-24T02:29:27.696Z,100212.72
2022-12-24T02:32:00.276Z,100220.44
2022-12-24T02:34:48.253Z,100216.66
2022-12-24T02:37:22.782Z,100230.53
2022-12-24T02:39:54.303Z,100228.16
2022-12-24T02:42:24.445Z,100229.69
2022-12-24T02:44:57.999Z,100232.28
2022-12-24T02:47:26.964Z,100228.16
2022-12-24T02:49:53.580Z,100227.69
2022-12-24T02:52:33.586Z,100226.81
2022-12-24T02:55:07.217Z,100234.06
2022-12-24T02:57:45.704Z,100245.28
2022-12-24T03:00:16.461Z,100234.75
2022-12-24T03:03:13.883Z,100237.66
2022-12-24T03:05:52.772Z,100247.34
2022-12-24T03:08:29.561Z,100246.19
2022-12-24T03:11:08.423Z,100246.19
2022-12-24T03:13:34.990Z,100253.38
2022-12-24T03:16:04.872Z,100252.63
2022-12-24T03:18:31.538Z,100253.09
2022-12-24T03:21:06.463Z,100249.09
2022-12-24T03:23:34.065Z,100254.75
2022-12-24T03:26:01.770Z,100262.16
2022-12-24T03:28:28.626Z,100268.22
2022-12-24T03:30:55.602Z,100274.25
2022-12-24T03:33:22.008Z,100270.47
2022-12-24T03:35:48.499Z,100271.22
2022-12-24T03:38:15.117Z,100273.47
2022-12-24T03:40:41.612Z,100280.72
2022-12-24T03:43:07.999Z,100283.34
2022-12-24T03:45:34.474Z,100288.63
2022-12-24T03:48:01.016Z,100288.69
2022-12-24T03:50:27.440Z,100294.94
2022-12-24T03:52:55.042Z,100288.50
2022-12-24T03:55:21.746Z,100287.38
2022-12-24T03:57:48.491Z,100282.78
2022-12-24T04:00:15.395Z,100293.28
2022-12-24T04:02:42.085Z,100284.84
2022-12-24T04:05:09.014Z,100286.47
2022-12-24T04:07:35.666Z,100292.81
2022-12-24T04:10:02.180Z,100296.22
2022-12-24T04:12:28.566Z,100303.94
2022-12-24T04:14:55.020Z,100313.25
2022-12-24T04:17:21.430Z,100311.78
2022-12-24T04:19:47.976Z,100320.03
2022-12-24T04:22:14.492Z,100307.13
2022-12-24T04:24:40.920Z,100316.91
2022-12-24T04:27:07.354Z,100316.94
2022-12-24T04:29:34.168Z,100315.41
2022-12-24T04:32:00.646Z,100324.47
2022-12-24T04:34:27.652Z,100330.91
2022-12-24T04:36:54.190Z,100321.44
2022-12-24T04:39:20.663Z,100337.28
2022-12-24T04:41:47.179Z,100337.56
2022-12-24T04:44:13.553Z,100337.53
2022-12-24T04:46:41.250Z,100345.81
2022-12-24T04:49:08.157Z,100340.50
2022-12-24T04:51:34.959Z,100351.53
2022-12-24T04:54:01.378Z,100346.25
2022-12-24T04:56:30.710Z,100344.78
2022-12-24T04:58:57.382Z,100344.84
2022-12-24T05:01:26.649Z,100346.31
2022-12-24T05:03:54.029Z,100337.09
2022-12-24T05:06:26.415Z,100346.88
2022-12-24T05:08:57.243Z,100351.66
2022-12-24T05:11:24.055Z,100347.59
2022-12-24T05:13:50.657Z,100353.13
2022-12-24T05:16:18.388Z,100358.00
2022-12-24T05:18:45.315Z,100364.44
2022-12-24T05:21:15.165Z,100359.63
2022-12-24T05:24:00.223Z,100362.19
2022-12-24T05:26:37.137Z,100355.53
2022-12-24T05:29:04.350Z,100365.38
2022-12-24T05:31:33.308Z,100370.00
2022-12-24T05:34:01.023Z,100369.88
2022-12-24T05:36:27.742Z,100370.66
2022-12-24T05:38:54.230Z,100371.91
2022-12-24T05:41:20.702Z,100374.19
2022-12-24T05:43:47.171Z,100372.97
2022-12-24T05:46:17.426Z,100377.59
2022-12-24T05:48:43.959Z,100386.31
2022-12-24T05:51:11.904Z,100391.16
2022-12-24T05:53:40.433Z,100404.16
2022-12-24T05:56:09.265Z,100407.03
2022-12-24T05:58:36.289Z,100406.16
2022-12-24T06:01:03.783Z,100411.50
2022-12-24T06:03:31.036Z,100416.00
2022-12-24T06:06:08.558Z,100412.22
2022-12-24T06:08:35.561Z,100406.41
2022-12-24T06:11:03.941Z,100411.72
2022-12-24T06:13:31.254Z,100418.00
2022-12-24T06:15:59.022Z,100409.69
2022-12-24T06:18:25.870Z,100416.22
2022-12-24T06:20:53.677Z,100409.28
2022-12-24T06:23:20.201Z,100422.81
2022-12-24T06:25:48.430Z,100425.75
2022-12-24T06:28:14.838Z,100425.28
2022-12-24T06:30:41.623Z,100434.97
2022-12-24T06:33:08.409Z,100434.47
2022-12-24T06:35:34.883Z,100438.50
2022-12-24T06:38:01.291Z,100446.81
2022-12-24T06:40:28.027Z,100446.97
2022-12-24T06:42:54.427Z,100450.63
2022-12-24T06:45:20.969Z,100451.38
2022-12-24T06:47:47.395Z,100452.16
2022-12-24T06:50:13.924Z,100449.22
2022-12-24T06:52:40.461Z,100440.41
2022-12-24T06:55:07.507Z,100458.03
2022-12-24T06:57:34.045Z,100448.56
2022-12-24T07:00:00.533Z,100458.41
2022-12-24T07:02:27.217Z,100472.31
2022-12-24T07:04:53.729Z,100476.53
2022-12-24T07:07:20.162Z,100488.19
2022-12-24T07:09:46.566Z,100496.31
2022-12-24T07:12:13.028Z,100506.94
2022-12-24T07:14:39.484Z,100514.84
2022-12-24T07:17:06.156Z,100516.56
2022-12-24T07:19:32.634Z,100528.56
2022-12-24T07:21:59.095Z,100527.81
2022-12-24T07:24:25.595Z,100526.88
2022-12-24T07:26:51.999Z,100532.19
2022-12-24T07:29:18.502Z,100532.09
2022-12-24T07:31:44.969Z,100536.63
2022-12-24T07:34:11.414Z,100547.28
2022-12-24T07:36:38.014Z,100543.47
2022-12-24T07:39:04.631Z,100543.59
2022-12-24T07:41:33.830Z,100543.03
2022-12-24T07:44:02.872Z,100558.19
2022-12-24T07:46:29.324Z,100554.53
2022-12-24T07:48:55.768Z,100551.75
2022-12-24T07:51:22.215Z,100542.69
2022-12-24T07:53:48.695Z,100556.25
2022-12-24T07:56:15.922Z,100561.56
2022-12-24T07:58:42.573Z,100567.81
2022-12-24T08:01:09.574Z,100576.97
2022-12-24T08:03:36.160Z,100562.47
2022-12-24T08:06:02.841Z,100576.81
2022-12-24T08:08:29.383Z,100586.06
2022-12-24T08:11:01.072Z,100591.66
2022-12-24T08:13:27.545Z,100594.94
2022-12-24T08:15:54.001Z,100592.75
2022-12-24T08:18:20.549Z,100602.19
2022-12-24T08:20:47.470Z,100609.09
2022-12-24T08:23:14.325Z,100609.50
2022-12-24T08:25:47.738Z,100608.34
2022-12-24T08:28:16.265Z,100613.06
2022-12-24T08:30:42.809Z,100614.53
2022-12-24T08:33:09.556Z,100617.59
2022-12-24T08:35:36.171Z,100623.16
2022-12-24T08:38:02.801Z,100630.75
2022-12-24T08:40:29.307Z,100631.56
2022-12-24T08:42:55.814Z,100645.78
2022-12-24T08:45:22.359Z,100653.56
2022-12-24T08:47:48.842Z,100655.75
2022-12-24T08:50:15.579Z,100652.97
2022-12-24T08:52:42.007Z,100649.72
2022-12-24T08:55:08.737Z,100648.88
2022-12-24T08:57:37.148Z,100653.78
2022-12-24T09:00:06.139Z,100657.28
2022-12-24T09:02:32.796Z,100669.00
2022-12-24T09:04:59.501Z,100663.31
2022-12-24T09:07:25.990Z,100676.88
2022-12-24T09:09:52.384Z,100672.22
2022-12-24T09:12:18.808Z,100683.38
2022-12-24T09:14:45.294Z,100678.22
2022-12-24T09:17:11.842Z,100693.50
2022-12-24T09:19:38.440Z,100691.59
2022-12-24T09:22:05.058Z,100706.19
2022-12-24T09:24:32.329Z,100704.06
2022-12-24T09:26:59.331Z,100701.91
2022-12-24T09:29:25.854Z,100704.16
2022-12-24T09:31:52.394Z,100702.03
2022-12-24T09:34:19.007Z,100706.56
2022-12-24T09:36:46.395Z,100725.88
2022-12-24T09:39:13.018Z,100734.50
2022-12-24T09:41:54.596Z,100734.41
2022-12-24T09:44:27.977Z,100739.06
2022-12-24T09:46:55.054Z,100742.50
2022-12-24T09:49:25.054Z,100743.88
2022-12-24T09:51:55.892Z,100755.72
2022-12-24T09:54:28.988Z,100759.81
2022-12-24T09:56:57.302Z,100762.34
2022-12-24T09:59:28.727Z,100766.72
2022-12-24T10:01:55.485Z,100757.97
2022-12-24T10:04:26.667Z,100771.38
2022-12-24T10:07:15.120Z,100762.84
2022-12-24T10:09:47.926Z,100774.81
2022-12-24T10:12:25.133Z,100768.72
2022-12-24T10:15:16.472Z,100781.72
2022-12-24T10:18:05.334Z,100770.72
2022-12-24T10:20:37.129Z,100781.03
2022-12-24T10:23:16.708Z,100778.50
2022-12-24T10:26:04.695Z,100782.31
2022-12-24T10:28:36.448Z,100793.22
2022-12-24T10:31:04.656Z,100782.50
2022-12-24T10:33:42.410Z,100780.78
2022-12-24T10:36:17.676Z,100795.47
2022-12-24T10:38:45.331Z,100799.50
2022-12-24T10:41:12.880Z,100794.09
2022-12-24T10:43:40.176Z,100794.59
2022-12-24T10:46:14.262Z,100796.34
2022-12-24T10:48:48.464Z,100808.00
2022-12-24T10:51:38.063Z,100815.91
2022-12-24T10:54:13.579Z,100812.28
2022-12-24T10:56:42.192Z,100804.31
2022-12-24T10:59:23.557Z,100816.25
2022-12-24T11:01:50.206Z,100820.44
2022-12-24T11:04:57.626Z,100808.84
2022-12-24T11:07:24.097Z,100813.03
2022-12-24T11:10:02.786Z,100817.50
2022-12-24T11:12:38.075Z,100810.41
2022-12-24T11:15:07.092Z,100810.66
2022-12-24T11:17:34.306Z,100809.97
2022-12-24T11:20:03.381Z,100810.09
2022-12-24T11:22:31.520Z,100816.13
2022-12-24T11:24:59.083Z,100810.78
2022-12-24T11:27:32.261Z,100812.97
2022-12-24T11:30:31.794Z,100808.59
2022-12-24T11:33:01.292Z,100816.81
2022-12-24T11:35:29.666Z,100808.31
2022-12-24T11:38:02.184Z,100799.28
2022-12-24T11:40:38.852Z,100807.63
2022-12-24T11:43:11.098Z,100802.31
2022-12-24T11:45:56.960Z,100806.13
2022-12-24T11:48:30.040Z,100811.63
2022-12-24T11:51:07.622Z,100816.25
2022-12-24T11:53:59.448Z,100817.75
2022-12-24T11:56:31.091Z,100808.88
2022-12-24T11:59:02.774Z,100810.72
2022-12-24T12:01:38.898Z,100812.00
2022-12-24T12:04:11.768Z,100811.94
2022-12-24T12:06:43.123Z,100822.31
2022-12-24T12:09:15.575Z,100826.94
2022-12-24T12:11:44.343Z,100832.97
2022-12-24T12:14:20.749Z,100834.00
2022-12-24T12:17:03.731Z,100821.38
2022-12-24T12:19:34.503Z,100829.66
2022-12-24T12:22:03.889Z,100834.97
2022-12-24T12:24:36.982Z,100837.66
2022-12-24T12:27:08.987Z,100843.31
2022-12-24T12:29:43.362Z,100846.97
2022-12-24T12:32:21.800Z,100855.31
2022-12-24T12:35:01.463Z,100859.16
2022-12-24T12:37:32.917Z,100857.84
2022-12-24T12:39:59.429Z,100858.56
2022-12-24T12:42:37.489Z,100854.59
2022-12-24T12:45:29.310Z,100860.53
2022-12-24T12:48:08.637Z,100858.41
2022-12-24T12:50:46.290Z,100858.66
2022-12-24T12:53:36.240Z,100863.06
2022-12-24T12:56:23.956Z,100862.81
2022-12-24T12:59:11.534Z,100857.53
2022-12-24T13:02:09.573Z,100859.81
2022-12-24T13:05:01.128Z,100866.78
2022-12-24T13:07:47.565Z,100868.06
2022-12-24T13:10:38.596Z,100864.28
2022-12-24T13:13:20.075Z,100870.78
2022-12-24T13:16:02.670Z,100875.63
2022-12-24T13:18:49.855Z,100864.56
2022-12-24T13:21:18.743Z,100863.94
2022-12-24T13:23:45.197Z,100871.16
2022-12-24T13:26:13.552Z,100882.66
2022-12-24T13:28:40.347Z,100883.53
2022-12-24T13:31:19.869Z,100891.56
2022-12-24T13:33:49.121Z,100891.63
2022-12-24T13:36:17.666Z,100893.47
2022-12-24T13:38:54.022Z,100889.31
2022-12-24T13:41:39.931Z,100889.47
2022-12-24T13:44:07.381Z,100901.09
2022-12-24T13:46:48.353Z,100901.44
2022-12-24T13:49:29.187Z,100900.56
2022-12-24T13:52:11.694Z,100908.25
2022-12-24T13:54:56.840Z,100922.72
2022-12-24T13:57:28.935Z,100918.31
2022-12-24T14:00:12.701Z,100926.63
2022-12-24T14:02:47.453Z,100927.53
2022-12-24T14:05:25.443Z,100921.31
2022-12-24T14:07:52.820Z,100917.53
2022-12-24T14:10:24.816Z,100922.72
2022-12-24T14:12:53.039Z,100935.59
2022-12-24T14:15:45.444Z,100936.50
2022-12-24T14:18:18.502Z,100939.78
2022-12-24T14:20:49.327Z,100939.84
2022-12-24T14:23:28.801Z,100927.94
2022-12-24T14:25:57.263Z,100938.19
2022-12-24T14:28:31.015Z,100939.03
2022-12-24T14:31:02.212Z,100949.94
2022-12-24T14:33:33.807Z,100956.34
2022-12-24T14:36:01.244Z,100957.28
2022-12-24T14:38:28.186Z,100957.41
2022-12-24T14:41:16.468Z,100966.06
2022-12-24T14:44:00.821Z,100968.38
2022-12-24T14:46:30.146Z,100985.88
2022-12-24T14:49:05.116Z,100985.16
2022-12-24T14:51:38.740Z,100988.66
2022-12-24T14:54:39.178Z,101007.72
2022-12-24T14:57:19.966Z,101002.19
2022-12-24T14:59:47.671Z,101007.47
2022-12-24T15:02:29.421Z,101014.19
2022-12-24T15:05:11.512Z,101003.97
2022-12-24T15:07:47.842Z,101011.03
2022-12-24T15:10:24.532Z,101016.41
2022-12-24T15:12:52.013Z,101017.38
2022-12-24T15:15:19.620Z,101022.66
2022-12-24T15:17:46.278Z,101029.94
2022-12-24T15:20:17.172Z,101034.25
2022-12-24T15:22:44.442Z,101040.34
2022-12-24T15:25:23.632Z,101036.72
2022-12-24T15:27:50.261Z,101049.00
2022-12-24T15:30:20.877Z,101055.03
2022-12-24T15:32:47.618Z,101054.38
2022-12-24T15:35:55.861Z,101073.44
2022-12-24T15:38:32.128Z,101066.59
2022-12-24T15:41:00.894Z,101068.66
2022-12-24T15:43:27.415Z,101069.88
2022-12-24T15:45:54.246Z,101059.53
2022-12-24T15:48:26.604Z,101076.69
2022-12-24T15:50:55.235Z,101080.75
2022-12-24T15:53:28.869Z,101077.06
2022-12-24T15:56:10.417Z,101081.41
2022-12-24T15:58:44.455Z,101075.94
2022-12-24T16:01:14.063Z,101084.88
2022-12-24T16:03:49.854Z,101076.94
2022-12-24T16:06:17.165Z,101083.38
2022-12-24T16:08:44.411Z,101100.66
2022-12-24T16:11:20.857Z,101102.97
2022-12-24T16:13:50.389Z,101104.44
2022-12-24T16:16:20.761Z,101116.28
2022-12-24T16:18:57.245Z,101115.94
2022-12-24T16:21:30.597Z,101126.03
2022-12-24T16:24:04.598Z,101117.25
2022-12-24T16:26:31.061Z,101128.59
2022-12-24T16:28:57.564Z,101128.59
2022-12-24T16:31:36.306Z,101130.94
2022-12-24T16:34:05.626Z,101132.13
2022-12-24T16:36:32.635Z,101139.81
2022-12-24T16:39:17.773Z,101129.94
2022-12-24T16:42:02.951Z,101129.88
2022-12-24T16:44:29.423Z,101129.59
2022-12-24T16:46:56.237Z,101133.47
2022-12-24T16:49:22.957Z,101137.63
2022-12-24T16:51:49.530Z,101139.22
2022-12-24T16:54:16.304Z,101142.38
2022-12-24T16:56:43.578Z,101143.84
2022-12-24T16:59:18.236Z,101153.03
2022-12-24T17:01:45.386Z,101154.63
2022-12-24T17:04:12.868Z,101155.06
2022-12-24T17:06:39.363Z,101156.63
2022-12-24T17:09:05.998Z,101163.69
2022-12-24T17:11:32.433Z,101168.84
2022-12-24T17:14:01.963Z,101168.22
2022-12-24T17:16:32.196Z,101176.84
2022-12-24T17:18:58.679Z,101173.78
2022-12-24T17:21:25.128Z,101174.59
2022-12-24T17:23:51.647Z,101176.66
2022-12-24T17:26:18.179Z,101175.44
2022-12-24T17:28:44.706Z,101181.53
2022-12-24T17:31:13.702Z,101185.69
2022-12-24T17:33:40.105Z,101186.56
2022-12-24T17:36:06.909Z,101187.63
2022-12-24T17:38:33.343Z,101185.34
2022-12-24T17:41:01.694Z,101190.66
2022-12-24T17:43:28.414Z,101191.81
2022-12-24T17:45:54.950Z,101191.59
2022-12-24T17:48:21.528Z,101193.13
2022-12-24T17:50:48.128Z,101202.47
2022-12-24T17:53:14.753Z,101200.69
2022-12-24T17:55:44.583Z,101199.16
2022-12-24T17:58:11.576Z,101204.44
2022-12-24T18:00:38.387Z,101206.00
2022-12-24T18:03:05.137Z,101209.09
2022-12-24T18:05:34.107Z,101211.72
2022-12-24T18:08:00.648Z,101208.66
2022-12-24T18:10:27.080Z,101207.84
2022-12-24T18:12:53.513Z,101218.13
2022-12-24T18:15:21.511Z,101208.31
2022-12-24T18:17:55.535Z,101208.34
2022-12-24T18:20:22.345Z,101212.16
2022-12-24T18:22:49.235Z,101209.84
2022-12-24T18:25:15.784Z,101212.53
2022-12-24T18:27:42.210Z,101219.91
2022-12-24T18:30:09.698Z,101220.00
2022-12-24T18:32:36.170Z,101222.31
2022-12-24T18:35:02.765Z,101225.03
2022-12-24T18:37:29.212Z,101227.66
2022-12-24T18:39:55.608Z,101220.06
2022-12-24T18:42:22.007Z,101222.41
2022-12-24T18:44:48.497Z,101213.25
2022-12-24T18:47:15.232Z,101223.47
2022-12-24T18:49:41.677Z,101220.81
2022-12-24T18:52:10.052Z,101218.94
2022-12-24T18:54:37.766Z,101216.66
2022-12-24T18:57:04.326Z,101229.97
2022-12-24T18:59:30.824Z,101222.75
2022-12-24T19:01:57.582Z,101226.19
2022-12-24T19:04:24.199Z,101230.72
2022-12-24T19:06:53.599Z,101229.97
2022-12-24T19:09:20.804Z,101226.56
2022-12-24T19:11:47.244Z,101224.66
2022-12-24T19:14:13.732Z,101221.25
2022-12-24T19:16:40.835Z,101225.78
2022-12-24T19:19:09.198Z,101229.97
2022-12-24T19:21:35.877Z,101229.56
2022-12-24T19:24:02.379Z,101224.31
2022-12-24T19:26:28.948Z,101225.47
2022-12-24T19:28:55.606Z,101222.44
2022-12-24T19:31:24.569Z,101228.88
2022-12-24T19:33:54.049Z,101227.78
2022-12-24T19:36:25.470Z,101233.03
2022-12-24T19:38:51.884Z,101242.09
2022-12-24T19:41:26.776Z,101248.16
2022-12-24T19:43:55.791Z,101245.06
2022-12-24T19:46:28.352Z,101247.06
2022-12-24T19:48:57.663Z,101244.72
2022-12-24T19:51:25.231Z,101256.44
2022-12-24T19:53:52.516Z,101251.13
2022-12-24T19:56:20.642Z,101260.50
2022-12-24T19:58:47.478Z,101254.03
2022-12-24T20:01:16.737Z,101260.75
2022-12-24T20:03:45.480Z,101264.09
2022-12-24T20:06:13.047Z,101266.00
2022-12-24T20:08:39.819Z,101267.47
2022-12-24T20:11:08.159Z,101265.91
2022-12-24T20:13:35.412Z,101265.75
2022-12-24T20:16:19.706Z,101274.03
2022-12-24T20:18:54.100Z,101276.69
2022-12-24T20:21:21.223Z,101289.59
2022-12-24T20:23:48.210Z,101292.81
2022-12-24T20:26:16.246Z,101292.81
2022-12-24T20:28:42.806Z,101299.56
2022-12-24T20:31:29.932Z,101302.59
2022-12-24T20:33:57.296Z,101300.31
2022-12-24T20:36:24.382Z,101304.81
2022-12-24T20:38:51.095Z,101309.97
2022-12-24T20:41:19.654Z,101314.63
2022-12-24T20:43:48.609Z,101310.34
2022-12-24T20:46:20.123Z,101314.88
2022-12-24T20:48:46.952Z,101316.47
2022-12-24T20:51:23.389Z,101323.72
2022-12-24T20:53:55.583Z,101325.34
2022-12-24T20:56:22.613Z,101330.31
2022-12-24T20:58:49.335Z,101337.38
2022-12-24T21:01:18.922Z,101337.00
2022-12-24T21:03:45.597Z,101334.28
2022-12-24T21:06:12.798Z,101330.34
2022-12-24T21:08:39.293Z,101334.09
2022-12-24T21:11:24.421Z,101343.44
2022-12-24T21:13:51.039Z,101333.53
2022-12-24T21:16:17.467Z,101333.75
2022-12-24T21:18:43.922Z,101332.97
2022-12-24T21:21:10.303Z,101331.63
2022-12-24T21:23:36.726Z,101345.88
2022-12-24T21:26:04.524Z,101339.94
2022-12-24T21:28:31.499Z,101341.63
2022-12-24T21:30:58.029Z,101346.09
2022-12-24T21:33:24.487Z,101344.53
2022-12-24T21:35:57.297Z,101344.03
2022-12-24T21:38:23.779Z,101333.34
2022-12-24T21:41:05.686Z,101342.03
2022-12-24T21:43:33.707Z,101338.13
2022-12-24T21:46:00.595Z,101330.94
2022-12-24T21:48:45.705Z,101335.41
2022-12-24T21:51:12.115Z,101323.53
2022-12-24T21:53:57.179Z,101319.59
2022-12-24T21:56:23.713Z,101322.72
2022-12-24T21:58:51.117Z,101315.06
2022-12-24T22:01:17.752Z,101314.41
2022-12-24T22:03:44.828Z,101315.78
2022-12-24T22:06:31.518Z,101323.09
2022-12-24T22:09:16.787Z,101313.53
2022-12-24T22:11:54.370Z,101305.41
2022-12-24T22:14:21.339Z,101304.69
2022-12-24T22:16:48.013Z,101317.81
2022-12-24T22:19:14.603Z,101311.53
2022-12-24T22:21:41.027Z,101312.78
2022-12-24T22:24:08.021Z,101310.72
2022-12-24T22:26:34.476Z,101308.31
2022-12-24T22:29:00.910Z,101310.50
2022-12-24T22:31:27.368Z,101300.44
2022-12-24T22:33:53.963Z,101297.94
2022-12-24T22:36:20.363Z,101300.00
2022-12-24T22:38:46.787Z,101294.91
2022-12-24T22:41:14.119Z,101298.16
2022-12-24T22:43:41.488Z,101313.56
2022-12-24T22:46:14.293Z,101294.44
2022-12-24T22:48:42.315Z,101291.19
2022-12-24T22:51:14.420Z,101287.19
2022-12-24T22:53:41.348Z,101280.91
2022-12-24T22:56:08.652Z,101287.31
2022-12-24T22:58:36.517Z,101302.19
2022-12-24T23:01:03.052Z,101300.53
2022-12-24T23:03:29.678Z,101295.13
2022-12-24T23:06:03.783Z,101295.69
2022-12-24T23:08:31.408Z,101285.66
2022-12-24T23:11:12.726Z,101294.03
2022-12-24T23:13:59.700Z,101303.31
2022-12-24T23:16:27.756Z,101295.41
2022-12-24T23:18:54.884Z,101299.63
2022-12-24T23:21:21.316Z,101309.47
2022-12-24T23:23:47.919Z,101328.72
2022-12-24T23:26:16.580Z,101328.84
2022-12-24T23:28:43.546Z,101324.19
2022-12-24T23:31:10.521Z,101332.13
2022-12-24T23:33:37.359Z,101336.94
2022-12-24T23:36:04.214Z,101332.91
2022-12-24T23:38:30.663Z,101342.47
2022-12-24T23:41:01.422Z,101344.72
2022-12-24T23:43:28.058Z,101334.44
2022-12-24T23:45:54.810Z,101339.16
2022-12-24T23:48:22.363Z,101337.75
2022-12-24T23:50:48.858Z,101326.69
2022-12-24T23:53:16.681Z,101325.47
2022-12-24T23:55:43.455Z,101323.59
2022-12-24T23:58:11.033Z,101328.38
